createdAt,value
2022-11-21T03:42:04.673Z,99303.71
2022-11-21T03:47:49.440Z,99294.55
2022-11-21T03:50:18.650Z,99297.10
2022-11-21T03:52:45.569Z,99301.00
2022-11-21T04:51:51.525Z,99244.71
2022-11-21T04:54:26.389Z,99239.98
2022-11-21T05:03:15.429Z,99234.52
2022-11-21T05:05:48.511Z,99232.14
2022-11-21T05:08:21.065Z,99223.49
2022-11-21T05:11:17.889Z,99223.14
2022-11-21T05:16:51.324Z,99213.79
2022-11-21T05:23:05.837Z,99206.30
2022-11-21T05:25:36.896Z,99195.79
2022-11-21T05:31:22.486Z,99177.77
2022-11-21T05:33:54.848Z,99179.11
2022-11-21T05:36:25.969Z,99177.92
2022-11-21T05:38:56.963Z,99176.55
2022-11-21T05:41:29.876Z,99174.52
2022-11-21T05:44:04.402Z,99173.81
2022-11-21T05:46:35.459Z,99174.65
2022-11-21T05:49:08.331Z,99176.34
2022-11-21T05:51:39.532Z,99178.70
2022-11-21T05:54:15.246Z,99173.42
2022-11-21T05:56:46.357Z,99169.50
2022-11-21T05:59:21.412Z,99170.70
2022-11-21T06:02:10.987Z,99167.12
2022-11-21T06:04:42.008Z,99165.60
2022-11-21T06:07:13.196Z,99162.35
2022-11-21T06:09:44.245Z,99164.55
2022-11-21T06:12:20.280Z,99166.77
2022-11-21T06:14:53.876Z,99161.33
2022-11-21T06:17:24.938Z,99159.13
2022-11-21T06:19:52.535Z,99159.11
2022-11-21T06:22:23.635Z,99170.29
2022-11-21T06:24:52.387Z,99173.20
2022-11-21T06:27:25.496Z,99175.23
2022-11-21T06:29:58.503Z,99172.52
2022-11-21T06:32:35.887Z,99169.83
2022-11-21T06:35:18.060Z,99172.36
2022-11-21T06:37:50.737Z,99175.06
2022-11-21T06:40:20.519Z,99171.50
2022-11-21T06:43:01.485Z,99175.74
2022-11-21T06:45:32.431Z,99179.50
2022-11-21T06:48:03.132Z,99170.81
2022-11-21T06:50:39.451Z,99174.21
2022-11-21T06:53:07.132Z,99179.63
2022-11-21T06:55:34.169Z,99178.60
2022-11-21T06:58:01.187Z,99185.36
2022-11-21T07:00:28.552Z,99186.04
2022-11-21T07:03:03.198Z,99180.09
2022-11-21T07:05:34.794Z,99179.40
2022-11-21T07:08:03.023Z,99177.35
2022-11-21T07:10:30.883Z,99169.02
2022-11-21T07:13:20.280Z,99172.58
2022-11-21T07:15:50.306Z,99168.65
2022-11-21T07:18:17.402Z,99172.86
2022-11-21T07:20:45.112Z,99171.98
2022-11-21T07:23:13.524Z,99169.60
2022-11-21T07:25:41.081Z,99170.95
2022-11-21T07:28:08.855Z,99168.23
2022-11-21T07:30:36.839Z,99168.38
2022-11-21T07:33:07.175Z,99170.39
2022-11-21T07:35:35.291Z,99163.42
2022-11-21T07:38:04.087Z,99166.80
2022-11-21T07:40:34.276Z,99160.52
2022-11-21T07:43:07.954Z,99158.64
2022-11-21T07:45:38.131Z,99162.71
2022-11-21T07:48:07.869Z,99167.83
2022-11-21T07:50:34.803Z,99166.95
2022-11-21T07:53:04.711Z,99163.05
2022-11-21T07:55:36.347Z,99164.23
2022-11-21T07:58:12.148Z,99164.91
2022-11-21T08:00:42.345Z,99164.56
2022-11-21T08:03:11.594Z,99164.38
2022-11-21T08:05:40.591Z,99159.27
2022-11-21T08:08:08.494Z,99156.18
2022-11-21T08:10:45.455Z,99156.81
2022-11-21T08:13:13.380Z,99155.77
2022-11-21T08:15:41.712Z,99151.48
2022-11-21T08:18:13.673Z,99152.97
2022-11-21T08:20:47.042Z,99157.20
2022-11-21T08:23:14.899Z,99155.00
2022-11-21T08:25:44.738Z,99152.95
2022-11-21T08:28:12.711Z,99152.25
2022-11-21T08:30:40.023Z,99148.98
2022-11-21T08:33:07.042Z,99148.28
2022-11-21T08:35:37.496Z,99145.05
2022-11-21T08:38:05.084Z,99146.38
2022-11-21T08:40:32.871Z,99137.71
2022-11-21T08:43:08.597Z,99133.75
2022-11-21T08:45:37.345Z,99127.91
2022-11-21T08:48:09.012Z,99124.65
2022-11-21T08:50:35.956Z,99123.61
2022-11-21T08:53:04.048Z,99124.44
2022-11-21T08:55:31.361Z,99120.36
2022-11-21T08:57:58.733Z,99116.79
2022-11-21T09:00:26.373Z,99118.14
2022-11-21T09:02:53.497Z,99117.42
2022-11-21T09:05:20.625Z,99118.95
2022-11-21T09:07:48.074Z,99115.90
2022-11-21T09:10:15.431Z,99118.60
2022-11-21T09:12:43.200Z,99120.27
2022-11-21T09:15:29.651Z,99122.16
2022-11-21T09:18:03.926Z,99125.39
2022-11-21T09:20:38.898Z,99121.47
2022-11-21T09:23:07.909Z,99130.78
2022-11-21T09:25:35.215Z,99132.11
2022-11-21T09:28:03.609Z,99128.21
2022-11-21T09:30:30.649Z,99132.42
2022-11-21T09:33:01.660Z,99126.79
2022-11-21T09:35:29.265Z,99124.90
2022-11-21T09:37:56.413Z,99121.98
2022-11-21T09:40:24.291Z,99121.05
2022-11-21T09:43:23.271Z,99119.48
2022-11-21T09:45:54.256Z,99122.67
2022-11-21T09:48:32.916Z,99120.07
2022-11-21T09:51:07.185Z,99124.09
2022-11-21T09:53:43.999Z,99125.31
2022-11-21T09:56:15.282Z,99118.01
2022-11-21T09:58:48.673Z,99114.23
2022-11-21T10:01:17.090Z,99108.77
2022-11-21T10:03:47.675Z,99109.38
2022-11-21T10:06:24.997Z,99110.01
2022-11-21T10:09:00.895Z,99103.46
2022-11-21T10:12:00.850Z,99102.17
2022-11-21T10:14:57.372Z,99095.45
2022-11-21T10:17:27.157Z,99092.00
2022-11-21T10:20:30.066Z,99096.17
2022-11-21T10:23:28.890Z,99094.43
2022-11-21T10:26:01.352Z,99089.69
2022-11-21T10:29:00.546Z,99092.31
2022-11-21T10:31:32.777Z,99096.83
2022-11-21T10:34:02.580Z,99092.59
2022-11-21T10:36:42.509Z,99089.66
2022-11-21T10:39:25.769Z,99092.11
2022-11-21T10:42:02.421Z,99095.64
2022-11-21T10:44:48.906Z,99093.86
2022-11-21T10:47:28.590Z,99094.25
2022-11-21T10:50:23.038Z,99093.79
2022-11-21T10:52:59.881Z,99096.73
2022-11-21T10:55:26.910Z,99099.64
2022-11-21T10:57:54.701Z,99096.98
2022-11-21T11:00:26.963Z,99098.14
2022-11-21T11:02:57.091Z,99099.23
2022-11-21T11:05:28.928Z,99098.38
2022-11-21T11:08:22.229Z,99098.55
2022-11-21T11:11:07.859Z,99095.45
2022-11-21T11:14:11.627Z,99094.23
2022-11-21T11:16:46.973Z,99096.66
2022-11-21T11:19:33.920Z,99092.62
2022-11-21T11:22:28.339Z,99090.08
2022-11-21T11:25:00.995Z,99094.46
2022-11-21T11:27:46.004Z,99100.02
2022-11-21T11:30:19.793Z,99104.10
2022-11-21T11:32:50.971Z,99104.63
2022-11-21T11:35:35.301Z,99109.05
2022-11-21T11:38:12.629Z,99110.74
2022-11-21T11:40:45.552Z,99110.55
2022-11-21T11:44:23.432Z,99110.20
2022-11-21T11:47:32.155Z,99106.38
2022-11-21T11:50:16.580Z,99100.90
2022-11-21T11:52:57.026Z,99097.35
2022-11-21T11:55:32.771Z,99094.09
2022-11-21T11:58:03.163Z,99096.09
2022-11-21T12:00:47.982Z,99095.89
2022-11-21T12:03:36.320Z,99101.56
2022-11-21T12:07:18.013Z,99102.21
2022-11-21T12:09:27.836Z,99107.77
2022-11-21T12:12:09.377Z,99109.64
2022-11-21T12:15:30.486Z,99114.60
2022-11-21T12:18:08.690Z,99121.29
2022-11-21T12:20:42.234Z,99128.05
2022-11-21T12:23:11.865Z,99133.82
2022-11-21T12:25:55.010Z,99134.08
2022-11-21T12:28:51.016Z,99138.91
2022-11-21T12:31:36.210Z,99139.60
2022-11-21T12:34:17.969Z,99140.33
2022-11-21T12:37:14.186Z,99143.05
2022-11-21T12:39:59.695Z,99137.77
2022-11-21T12:42:53.601Z,99138.53
2022-11-21T12:45:31.902Z,99139.02
2022-11-21T12:48:28.355Z,99141.85
2022-11-21T12:51:29.462Z,99140.17
2022-11-21T12:54:30.169Z,99146.16
2022-11-21T12:57:13.742Z,99144.25
2022-11-21T13:00:09.395Z,99135.88
2022-11-21T13:02:56.740Z,99140.80
2022-11-21T13:38:04.556Z,99146.67
2022-11-21T13:40:39.803Z,99149.45
2022-11-21T13:43:33.325Z,99159.46
2022-11-21T13:46:02.567Z,99163.06
2022-11-21T13:48:31.080Z,99163.46
2022-11-21T13:51:16.148Z,99168.30
2022-11-21T13:54:21.957Z,99167.65
2022-11-21T13:57:13.566Z,99164.10
2022-11-21T13:59:42.050Z,99169.52
2022-11-21T14:02:48.279Z,99173.26
2022-11-21T14:05:47.775Z,99177.30
2022-11-21T14:08:22.658Z,99179.04
2022-11-21T14:10:53.392Z,99182.35
2022-11-21T14:13:38.315Z,99183.40
2022-11-21T14:16:32.804Z,99188.52
2022-11-21T14:19:01.240Z,99193.13
2022-11-21T14:21:33.338Z,99198.20
2022-11-21T14:24:04.762Z,99201.26
2022-11-21T14:26:52.110Z,99204.23
2022-11-21T14:29:41.368Z,99200.48
2022-11-21T14:32:16.102Z,99207.95
2022-11-21T14:34:44.536Z,99208.48
2022-11-21T14:37:13.682Z,99212.34
2022-11-21T14:39:44.803Z,99219.23
2022-11-21T14:42:38.684Z,99218.40
2022-11-21T14:45:23.234Z,99223.05
2022-11-21T14:47:54.922Z,99220.94
2022-11-21T14:50:32.098Z,99224.33
2022-11-21T14:53:02.416Z,99224.51
2022-11-21T14:55:33.109Z,99223.08
2022-11-21T14:58:04.228Z,99220.52
2022-11-21T15:01:02.589Z,99225.39
2022-11-21T15:03:23.646Z,99225.83
2022-11-21T15:06:07.778Z,99225.88
2022-11-21T15:12:01.675Z,99233.73
2022-11-21T15:14:37.631Z,99238.80
2022-11-21T15:17:12.274Z,99244.70
2022-11-21T15:19:42.661Z,99244.67
2022-11-21T15:22:29.358Z,99245.02
2022-11-21T15:25:21.730Z,99247.51
2022-11-21T15:28:09.492Z,99243.89
2022-11-21T15:30:38.648Z,99249.79
2022-11-21T15:33:20.884Z,99253.65
2022-11-21T15:35:53.429Z,99258.06
2022-11-21T15:38:47.444Z,99258.05
2022-11-21T15:41:16.061Z,99254.85
2022-11-21T15:44:22.914Z,99258.31
2022-11-21T15:46:52.553Z,99257.48
2022-11-21T15:49:36.154Z,99256.11
2022-11-21T15:52:12.488Z,99254.05
2022-11-21T15:54:40.866Z,99254.67
2022-11-21T15:57:10.304Z,99253.20
2022-11-21T15:59:39.267Z,99254.45
2022-11-21T16:02:12.762Z,99255.50
2022-11-21T16:04:42.321Z,99250.05
2022-11-21T16:07:10.782Z,99244.88
2022-11-21T16:10:04.592Z,99246.31
2022-11-21T16:12:33.002Z,99248.94
2022-11-21T16:15:01.701Z,99245.41
2022-11-21T16:17:30.215Z,99245.38
2022-11-21T16:19:58.928Z,99239.39
2022-11-21T16:22:27.504Z,99241.20
2022-11-21T16:24:55.985Z,99242.55
2022-11-21T16:27:24.557Z,99243.30
2022-11-21T16:29:54.070Z,99247.80
2022-11-21T16:32:22.505Z,99252.98
2022-11-21T16:34:51.921Z,99261.41
2022-11-21T16:37:20.925Z,99262.00
2022-11-21T16:39:52.949Z,99263.30
2022-11-21T16:42:22.013Z,99259.56
2022-11-21T16:44:50.497Z,99254.38
2022-11-21T16:47:19.000Z,99253.95
2022-11-21T16:49:48.771Z,99255.98
2022-11-21T16:52:20.526Z,99257.91
2022-11-21T16:54:50.494Z,99261.17
2022-11-21T16:57:19.024Z,99256.63
2022-11-21T16:59:47.977Z,99260.77
2022-11-21T17:02:16.556Z,99257.23
2022-11-21T17:04:51.737Z,99260.31
2022-11-21T17:07:20.542Z,99256.37
2022-11-21T17:09:49.625Z,99255.53
2022-11-21T17:12:18.646Z,99250.23
2022-11-21T17:14:50.504Z,99253.63
2022-11-21T17:17:19.504Z,99255.51
2022-11-21T17:19:49.729Z,99260.09
2022-11-21T17:22:24.624Z,99260.26
2022-11-21T17:24:58.458Z,99259.14
2022-11-21T17:27:27.059Z,99259.39
2022-11-21T17:29:56.128Z,99265.83
2022-11-21T17:32:26.036Z,99267.48
2022-11-21T17:34:55.631Z,99270.23
2022-11-21T17:37:24.941Z,99277.98
2022-11-21T17:39:55.691Z,99276.38
2022-11-21T17:42:27.687Z,99280.02
2022-11-21T17:44:56.416Z,99278.06
2022-11-21T17:47:26.619Z,99278.30
2022-11-21T17:49:58.965Z,99277.66
2022-11-21T17:52:31.504Z,99275.98
2022-11-21T17:55:01.895Z,99279.92
2022-11-21T17:57:31.597Z,99282.91
2022-11-21T18:00:00.385Z,99277.91
2022-11-21T18:02:29.829Z,99281.08
2022-11-21T18:04:59.296Z,99284.95
2022-11-21T18:07:30.396Z,99289.06
2022-11-21T18:10:20.546Z,99289.54
2022-11-21T18:12:47.665Z,99292.52
2022-11-21T18:15:16.553Z,99294.67
2022-11-21T18:17:45.417Z,99290.03
2022-11-21T18:20:15.091Z,99286.90
2022-11-21T18:22:46.517Z,99291.00
2022-11-21T18:25:16.299Z,99293.05
2022-11-21T18:27:50.204Z,99293.96
2022-11-21T18:30:23.840Z,99298.31
2022-11-21T18:32:54.596Z,99296.33
2022-11-21T18:35:27.321Z,99290.60
2022-11-21T18:37:59.168Z,99292.52
2022-11-21T18:40:31.234Z,99292.55
2022-11-21T18:43:04.170Z,99292.95
2022-11-21T18:45:33.567Z,99298.08
2022-11-21T18:48:08.988Z,99294.96
2022-11-21T18:50:38.437Z,99290.73
2022-11-21T18:53:07.948Z,99296.37
2022-11-21T18:55:40.268Z,99298.40
2022-11-21T18:58:10.024Z,99302.11
2022-11-21T19:00:39.334Z,99309.70
2022-11-21T19:03:08.799Z,99308.62
2022-11-21T19:05:44.871Z,99309.80
2022-11-21T19:08:14.382Z,99309.73
2022-11-21T19:10:44.295Z,99310.02
2022-11-21T19:13:13.404Z,99311.84
2022-11-21T19:15:46.064Z,99316.92
2022-11-21T19:18:18.491Z,99320.88
2022-11-21T19:20:48.810Z,99320.38
2022-11-21T19:23:18.941Z,99314.80
2022-11-21T19:25:50.334Z,99312.59
2022-11-21T19:28:22.505Z,99316.88
2022-11-21T19:30:52.484Z,99317.43
2022-11-21T19:33:22.593Z,99317.27
2022-11-21T19:35:52.812Z,99323.56
2022-11-21T19:38:22.015Z,99318.25
2022-11-21T19:41:09.753Z,99320.63
2022-11-21T19:43:42.391Z,99321.50
2022-11-21T19:46:24.432Z,99324.21
2022-11-21T19:48:57.046Z,99325.78
2022-11-21T19:51:37.976Z,99323.75
2022-11-21T19:54:10.483Z,99327.66
2022-11-21T19:59:24.834Z,99322.81
2022-11-21T20:01:59.488Z,99327.09
2022-11-21T20:04:30.354Z,99333.23
2022-11-21T20:07:03.493Z,99331.94
2022-11-21T20:09:37.504Z,99334.88
2022-11-21T20:12:08.087Z,99334.91
2022-11-21T20:14:38.060Z,99330.86
2022-11-21T20:17:08.933Z,99328.50
2022-11-21T20:19:44.262Z,99326.31
2022-11-21T20:22:17.664Z,99326.66
2022-11-21T20:24:51.728Z,99326.31
2022-11-21T20:27:22.359Z,99324.80
2022-11-21T20:29:53.144Z,99321.08
2022-11-21T20:32:26.407Z,99318.04
2022-11-21T20:34:56.048Z,99314.98
2022-11-21T20:37:25.009Z,99317.06
2022-11-21T20:39:54.962Z,99323.18
2022-11-21T20:42:25.990Z,99322.40
2022-11-21T20:47:45.881Z,99331.09
2022-11-21T20:50:37.275Z,99331.53
2022-11-21T20:55:56.388Z,99330.67
2022-11-21T20:58:25.852Z,99332.35
2022-11-21T21:00:55.160Z,99332.02
2022-11-21T21:03:25.215Z,99333.88
2022-11-21T21:06:04.162Z,99329.77
2022-11-21T21:08:36.204Z,99325.25
2022-11-21T21:11:44.586Z,99320.13
2022-11-21T21:14:08.923Z,99324.08
2022-11-21T21:16:38.424Z,99333.23
2022-11-21T21:19:07.381Z,99338.77
2022-11-21T21:21:36.338Z,99332.75
2022-11-21T21:24:07.973Z,99325.77
2022-11-21T21:26:42.739Z,99326.47
2022-11-21T21:29:17.800Z,99332.23
2022-11-21T21:31:50.983Z,99337.94
2022-11-21T21:34:21.962Z,99337.50
2022-11-21T21:36:51.360Z,99332.64
2022-11-21T21:39:20.048Z,99325.05
2022-11-21T21:41:48.523Z,99319.14
2022-11-21T21:44:17.352Z,99315.42
2022-11-21T21:46:45.907Z,99314.29
2022-11-21T21:49:14.803Z,99310.41
2022-11-21T21:51:43.617Z,99315.42
2022-11-21T21:54:17.651Z,99314.47
2022-11-21T21:56:47.405Z,99308.20
2022-11-21T21:59:15.850Z,99311.61
2022-11-21T22:01:44.564Z,99318.45
2022-11-21T22:04:13.711Z,99314.05
2022-11-21T22:06:42.225Z,99310.15
2022-11-21T22:09:10.914Z,99297.55
2022-11-21T22:11:39.854Z,99295.53
2022-11-21T22:14:13.532Z,99302.04
2022-11-21T22:16:43.224Z,99304.43
2022-11-21T22:19:11.770Z,99300.51
2022-11-21T22:21:40.395Z,99290.59
2022-11-21T22:24:26.049Z,99288.35
2022-11-21T22:26:55.158Z,99287.48
2022-11-21T22:29:23.731Z,99289.18
2022-11-21T22:31:52.266Z,99290.27
2022-11-21T22:34:20.987Z,99294.60
2022-11-21T22:36:49.363Z,99293.64
2022-11-21T22:39:18.317Z,99289.08
2022-11-21T22:41:46.941Z,99283.81
2022-11-21T22:44:15.538Z,99287.05
2022-11-21T22:46:43.949Z,99284.19
2022-11-21T22:49:12.407Z,99280.98
2022-11-21T22:51:40.906Z,99279.11
2022-11-21T22:54:09.466Z,99283.52
2022-11-21T22:56:37.826Z,99290.45
2022-11-21T22:59:06.259Z,99287.53
2022-11-21T23:01:35.260Z,99288.56
2022-11-21T23:04:03.914Z,99292.50
2022-11-21T23:06:32.470Z,99289.51
2022-11-21T23:09:01.032Z,99293.48
2022-11-21T23:11:36.503Z,99296.21
2022-11-21T23:14:08.200Z,99299.23
2022-11-21T23:16:37.212Z,99302.16
2022-11-21T23:19:05.691Z,99304.27
2022-11-21T23:21:34.515Z,99306.02
2022-11-21T23:24:02.922Z,99306.35
2022-11-21T23:26:31.378Z,99302.82
2022-11-21T23:29:03.785Z,99307.09
2022-11-21T23:31:36.797Z,99309.64
2022-11-21T23:34:05.264Z,99310.66
2022-11-21T23:36:33.691Z,99315.27
2022-11-21T23:39:02.096Z,99335.52
2022-11-21T23:41:30.610Z,99340.08
2022-11-21T23:44:28.828Z,99344.14
2022-11-21T23:46:57.142Z,99342.95
2022-11-21T23:49:25.653Z,99340.25
2022-11-21T23:51:53.986Z,99345.82
2022-11-21T23:54:22.417Z,99346.42
2022-11-21T23:56:50.785Z,99347.77
2022-11-21T23:59:19.265Z,99351.98
